sensor_id;sensor_type;location;lat;lon;timestamp;temperature;humidity
52963;DHT22;38827;53.024;6.596;2022-12-18T00:02:17;-2.60;86.70
52963;DHT22;38827;53.024;6.596;2022-12-18T00:04:42;-2.60;86.60
52963;DHT22;38827;53.024;6.596;2022-12-18T00:07:08;-2.60;86.60
52963;DHT22;38827;53.024;6.596;2022-12-18T00:09:34;-2.60;86.50
52963;DHT22;38827;53.024;6.596;2022-12-18T00:12:00;-2.60;86.40
52963;DHT22;38827;53.024;6.596;2022-12-18T00:14:25;-2.60;86.30
52963;DHT22;38827;53.024;6.596;2022-12-18T00:16:51;-2.70;86.40
52963;DHT22;38827;53.024;6.596;2022-12-18T00:19:16;-2.70;86.30
52963;DHT22;38827;53.024;6.596;2022-12-18T00:21:43;-2.70;86.20
52963;DHT22;38827;53.024;6.596;2022-12-18T00:24:10;-2.70;86.20
52963;DHT22;38827;53.024;6.596;2022-12-18T00:26:38;-2.70;86.30
52963;DHT22;38827;53.024;6.596;2022-12-18T00:29:13;-2.70;86.50
52963;DHT22;38827;53.024;6.596;2022-12-18T00:31:42;-2.70;86.20
52963;DHT22;38827;53.024;6.596;2022-12-18T00:34:12;-2.70;86.30
52963;DHT22;38827;53.024;6.596;2022-12-18T00:36:39;-2.70;86.10
52963;DHT22;38827;53.024;6.596;2022-12-18T00:39:05;-2.70;86.20
52963;DHT22;38827;53.024;6.596;2022-12-18T00:41:31;-2.80;86.30
52963;DHT22;38827;53.024;6.596;2022-12-18T00:44:17;-2.80;85.90
52963;DHT22;38827;53.024;6.596;2022-12-18T00:46:44;-2.80;86.00
52963;DHT22;38827;53.024;6.596;2022-12-18T00:49:10;-2.90;86.10
52963;DHT22;38827;53.024;6.596;2022-12-18T00:51:36;-2.90;86.20
52963;DHT22;38827;53.024;6.596;2022-12-18T00:54:01;-2.90;86.30
52963;DHT22;38827;53.024;6.596;2022-12-18T00:56:27;-2.90;86.30
52963;DHT22;38827;53.024;6.596;2022-12-18T00:58:53;-2.90;86.10
52963;DHT22;38827;53.024;6.596;2022-12-18T01:01:19;-2.90;86.10
52963;DHT22;38827;53.024;6.596;2022-12-18T01:03:45;-2.90;86.10
52963;DHT22;38827;53.024;6.596;2022-12-18T01:06:12;-2.90;86.10
52963;DHT22;38827;53.024;6.596;2022-12-18T01:08:39;-3.00;86.20
52963;DHT22;38827;53.024;6.596;2022-12-18T01:11:23;-3.00;86.40
52963;DHT22;38827;53.024;6.596;2022-12-18T01:13:52;-3.00;86.30
52963;DHT22;38827;53.024;6.596;2022-12-18T01:16:19;-3.10;86.00
52963;DHT22;38827;53.024;6.596;2022-12-18T01:18:45;-3.10;86.10
52963;DHT22;38827;53.024;6.596;2022-12-18T01:21:14;-3.20;86.00
52963;DHT22;38827;53.024;6.596;2022-12-18T01:23:40;-3.30;86.20
52963;DHT22;38827;53.024;6.596;2022-12-18T01:26:12;-3.30;86.30
52963;DHT22;38827;53.024;6.596;2022-12-18T01:28:38;-3.20;86.50
52963;DHT22;38827;53.024;6.596;2022-12-18T01:31:16;-3.20;86.40
52963;DHT22;38827;53.024;6.596;2022-12-18T01:33:42;-3.30;86.40
52963;DHT22;38827;53.024;6.596;2022-12-18T01:36:08;-3.30;86.30
52963;DHT22;38827;53.024;6.596;2022-12-18T01:38:39;-3.30;86.20
52963;DHT22;38827;53.024;6.596;2022-12-18T01:41:05;-3.40;86.40
52963;DHT22;38827;53.024;6.596;2022-12-18T01:43:54;-3.40;86.30
52963;DHT22;38827;53.024;6.596;2022-12-18T01:46:22;-3.40;86.40
52963;DHT22;38827;53.024;6.596;2022-12-18T01:48:57;-3.40;86.50
52963;DHT22;38827;53.024;6.596;2022-12-18T01:51:23;-3.40;86.50
52963;DHT22;38827;53.024;6.596;2022-12-18T01:53:49;-3.40;86.50
52963;DHT22;38827;53.024;6.596;2022-12-18T01:56:20;-3.40;86.60
52963;DHT22;38827;53.024;6.596;2022-12-18T01:58:52;-3.40;86.60
52963;DHT22;38827;53.024;6.596;2022-12-18T02:01:21;-3.40;86.60
52963;DHT22;38827;53.024;6.596;2022-12-18T02:03:47;-3.40;86.60
52963;DHT22;38827;53.024;6.596;2022-12-18T02:06:27;-3.40;86.70
52963;DHT22;38827;53.024;6.596;2022-12-18T02:09:17;-3.40;86.70
52963;DHT22;38827;53.024;6.596;2022-12-18T02:11:59;-3.40;86.80
52963;DHT22;38827;53.024;6.596;2022-12-18T02:14:38;-3.40;86.70
52963;DHT22;38827;53.024;6.596;2022-12-18T02:17:22;-3.50;86.60
52963;DHT22;38827;53.024;6.596;2022-12-18T02:23:12;-3.50;86.80
52963;DHT22;38827;53.024;6.596;2022-12-18T02:28:43;-3.50;86.80
52963;DHT22;38827;53.024;6.596;2022-12-18T02:31:14;-3.50;86.70
52963;DHT22;38827;53.024;6.596;2022-12-18T02:33:43;-3.50;86.50
52963;DHT22;38827;53.024;6.596;2022-12-18T02:36:11;-3.60;86.60
52963;DHT22;38827;53.024;6.596;2022-12-18T02:38:38;-3.60;86.50
52963;DHT22;38827;53.024;6.596;2022-12-18T02:41:05;-3.70;86.70
52963;DHT22;38827;53.024;6.596;2022-12-18T02:43:31;-3.70;86.60
52963;DHT22;38827;53.024;6.596;2022-12-18T02:45:59;-3.70;86.60
52963;DHT22;38827;53.024;6.596;2022-12-18T02:48:29;-3.70;86.70
52963;DHT22;38827;53.024;6.596;2022-12-18T02:51:14;-3.80;86.70
52963;DHT22;38827;53.024;6.596;2022-12-18T02:54:03;-3.80;86.80
52963;DHT22;38827;53.024;6.596;2022-12-18T02:56:39;-3.80;86.90
52963;DHT22;38827;53.024;6.596;2022-12-18T02:59:18;-3.80;86.80
52963;DHT22;38827;53.024;6.596;2022-12-18T03:02:38;-3.90;86.90
52963;DHT22;38827;53.024;6.596;2022-12-18T03:05:01;-3.90;86.90
52963;DHT22;38827;53.024;6.596;2022-12-18T03:07:53;-3.90;86.70
52963;DHT22;38827;53.024;6.596;2022-12-18T03:10:29;-4.00;86.60
52963;DHT22;38827;53.024;6.596;2022-12-18T03:13:08;-4.00;86.60
52963;DHT22;38827;53.024;6.596;2022-12-18T03:15:38;-4.00;86.70
52963;DHT22;38827;53.024;6.596;2022-12-18T03:18:25;-4.00;86.60
52963;DHT22;38827;53.024;6.596;2022-12-18T03:20:58;-4.10;86.70
52963;DHT22;38827;53.024;6.596;2022-12-18T03:23:29;-4.10;86.60
52963;DHT22;38827;53.024;6.596;2022-12-18T03:26:00;-4.10;86.50
52963;DHT22;38827;53.024;6.596;2022-12-18T03:28:29;-4.20;86.40
52963;DHT22;38827;53.024;6.596;2022-12-18T03:30:57;-4.20;86.50
52963;DHT22;38827;53.024;6.596;2022-12-18T03:33:31;-4.20;86.40
52963;DHT22;38827;53.024;6.596;2022-12-18T03:36:00;-4.20;86.40
52963;DHT22;38827;53.024;6.596;2022-12-18T03:38:27;-4.30;86.50
52963;DHT22;38827;53.024;6.596;2022-12-18T03:43:52;-4.30;86.40
52963;DHT22;38827;53.024;6.596;2022-12-18T03:49:14;-4.30;86.40
52963;DHT22;38827;53.024;6.596;2022-12-18T03:52:03;-4.30;86.30
52963;DHT22;38827;53.024;6.596;2022-12-18T03:54:42;-4.40;86.30
52963;DHT22;38827;53.024;6.596;2022-12-18T03:57:30;-4.40;86.30
52963;DHT22;38827;53.024;6.596;2022-12-18T04:00:10;-4.40;86.20
52963;DHT22;38827;53.024;6.596;2022-12-18T04:02:39;-4.40;86.30
52963;DHT22;38827;53.024;6.596;2022-12-18T04:05:07;-4.40;86.20
52963;DHT22;38827;53.024;6.596;2022-12-18T04:07:34;-4.50;86.10
52963;DHT22;38827;53.024;6.596;2022-12-18T04:10:02;-4.50;86.10
52963;DHT22;38827;53.024;6.596;2022-12-18T04:12:29;-4.60;86.00
52963;DHT22;38827;53.024;6.596;2022-12-18T04:14:55;-4.60;85.90
52963;DHT22;38827;53.024;6.596;2022-12-18T04:17:21;-4.60;85.80
52963;DHT22;38827;53.024;6.596;2022-12-18T04:19:47;-4.70;85.70
52963;DHT22;38827;53.024;6.596;2022-12-18T04:22:14;-4.70;85.80
52963;DHT22;38827;53.024;6.596;2022-12-18T04:24:39;-4.80;85.90
52963;DHT22;38827;53.024;6.596;2022-12-18T04:27:05;-4.80;85.90
52963;DHT22;38827;53.024;6.596;2022-12-18T04:29:31;-4.80;85.90
52963;DHT22;38827;53.024;6.596;2022-12-18T04:31:56;-4.80;85.80
52963;DHT22;38827;53.024;6.596;2022-12-18T04:34:22;-4.80;85.90
52963;DHT22;38827;53.024;6.596;2022-12-18T04:36:48;-4.80;85.70
52963;DHT22;38827;53.024;6.596;2022-12-18T04:39:14;-4.90;85.80
52963;DHT22;38827;53.024;6.596;2022-12-18T04:41:40;-4.90;85.90
52963;DHT22;38827;53.024;6.596;2022-12-18T04:44:06;-4.80;85.80
52963;DHT22;38827;53.024;6.596;2022-12-18T04:46:32;-4.80;85.90
52963;DHT22;38827;53.024;6.596;2022-12-18T04:48:58;-4.90;85.70
52963;DHT22;38827;53.024;6.596;2022-12-18T04:51:23;-4.80;85.70
52963;DHT22;38827;53.024;6.596;2022-12-18T04:53:49;-4.80;85.80
52963;DHT22;38827;53.024;6.596;2022-12-18T04:56:15;-4.80;85.60
52963;DHT22;38827;53.024;6.596;2022-12-18T04:58:43;-4.80;85.60
52963;DHT22;38827;53.024;6.596;2022-12-18T05:01:11;-4.90;85.60
52963;DHT22;38827;53.024;6.596;2022-12-18T05:03:40;-4.80;85.60
52963;DHT22;38827;53.024;6.596;2022-12-18T05:06:06;-4.80;85.50
52963;DHT22;38827;53.024;6.596;2022-12-18T05:08:32;-4.80;85.30
52963;DHT22;38827;53.024;6.596;2022-12-18T05:11:05;-4.90;85.30
52963;DHT22;38827;53.024;6.596;2022-12-18T05:13:32;-4.90;85.30
52963;DHT22;38827;53.024;6.596;2022-12-18T05:15:58;-4.80;85.30
52963;DHT22;38827;53.024;6.596;2022-12-18T05:18:24;-4.80;85.20
52963;DHT22;38827;53.024;6.596;2022-12-18T05:20:51;-4.80;85.20
52963;DHT22;38827;53.024;6.596;2022-12-18T05:23:18;-4.80;85.30
52963;DHT22;38827;53.024;6.596;2022-12-18T05:25:56;-4.80;85.20
52963;DHT22;38827;53.024;6.596;2022-12-18T05:28:24;-4.80;85.20
52963;DHT22;38827;53.024;6.596;2022-12-18T05:30:51;-4.80;85.00
52963;DHT22;38827;53.024;6.596;2022-12-18T05:33:21;-4.80;85.00
52963;DHT22;38827;53.024;6.596;2022-12-18T05:41:04;-4.80;84.80
52963;DHT22;38827;53.024;6.596;2022-12-18T05:43:44;-4.80;84.90
52963;DHT22;38827;53.024;6.596;2022-12-18T05:46:26;-4.80;85.20
52963;DHT22;38827;53.024;6.596;2022-12-18T05:51:54;-4.80;84.80
52963;DHT22;38827;53.024;6.596;2022-12-18T05:54:23;-4.90;84.90
52963;DHT22;38827;53.024;6.596;2022-12-18T05:57:03;-4.90;84.90
52963;DHT22;38827;53.024;6.596;2022-12-18T05:59:28;-4.90;84.90
52963;DHT22;38827;53.024;6.596;2022-12-18T06:01:54;-5.00;84.80
52963;DHT22;38827;53.024;6.596;2022-12-18T06:04:20;-5.00;84.80
52963;DHT22;38827;53.024;6.596;2022-12-18T06:06:45;-5.00;84.80
52963;DHT22;38827;53.024;6.596;2022-12-18T06:09:11;-5.00;84.80
52963;DHT22;38827;53.024;6.596;2022-12-18T06:11:38;-5.10;84.90
52963;DHT22;38827;53.024;6.596;2022-12-18T06:14:05;-5.10;84.80
52963;DHT22;38827;53.024;6.596;2022-12-18T06:16:32;-5.10;85.00
52963;DHT22;38827;53.024;6.596;2022-12-18T06:19:04;-5.10;84.90
52963;DHT22;38827;53.024;6.596;2022-12-18T06:21:30;-5.20;84.70
52963;DHT22;38827;53.024;6.596;2022-12-18T06:23:56;-5.20;84.90
52963;DHT22;38827;53.024;6.596;2022-12-18T06:26:22;-5.20;84.90
52963;DHT22;38827;53.024;6.596;2022-12-18T06:28:48;-5.20;84.90
52963;DHT22;38827;53.024;6.596;2022-12-18T06:31:13;-5.20;84.80
52963;DHT22;38827;53.024;6.596;2022-12-18T06:33:39;-5.20;84.80
52963;DHT22;38827;53.024;6.596;2022-12-18T06:36:11;-5.20;84.90
52963;DHT22;38827;53.024;6.596;2022-12-18T06:38:40;-5.20;85.00
52963;DHT22;38827;53.024;6.596;2022-12-18T06:41:12;-5.20;85.10
52963;DHT22;38827;53.024;6.596;2022-12-18T06:43:38;-5.10;85.10
52963;DHT22;38827;53.024;6.596;2022-12-18T06:46:04;-5.10;84.80
52963;DHT22;38827;53.024;6.596;2022-12-18T06:48:30;-5.10;84.90
52963;DHT22;38827;53.024;6.596;2022-12-18T06:50:56;-5.10;84.80
52963;DHT22;38827;53.024;6.596;2022-12-18T06:53:24;-5.10;84.60
52963;DHT22;38827;53.024;6.596;2022-12-18T06:55:50;-5.20;84.60
52963;DHT22;38827;53.024;6.596;2022-12-18T06:58:16;-5.20;84.40
52963;DHT22;38827;53.024;6.596;2022-12-18T07:00:42;-5.20;84.50
52963;DHT22;38827;53.024;6.596;2022-12-18T07:03:11;-5.30;84.60
52963;DHT22;38827;53.024;6.596;2022-12-18T07:05:40;-5.30;84.70
52963;DHT22;38827;53.024;6.596;2022-12-18T07:08:06;-5.30;84.80
52963;DHT22;38827;53.024;6.596;2022-12-18T07:10:32;-5.30;84.80
52963;DHT22;38827;53.024;6.596;2022-12-18T07:12:58;-5.30;84.80
52963;DHT22;38827;53.024;6.596;2022-12-18T07:15:23;-5.30;84.90
52963;DHT22;38827;53.024;6.596;2022-12-18T07:17:49;-5.30;84.80
52963;DHT22;38827;53.024;6.596;2022-12-18T07:20:15;-5.30;84.70
52963;DHT22;38827;53.024;6.596;2022-12-18T07:22:40;-5.30;84.80
52963;DHT22;38827;53.024;6.596;2022-12-18T07:25:07;-5.30;84.70
52963;DHT22;38827;53.024;6.596;2022-12-18T07:27:32;-5.30;84.70
52963;DHT22;38827;53.024;6.596;2022-12-18T07:29:58;-5.30;84.80
52963;DHT22;38827;53.024;6.596;2022-12-18T07:32:23;-5.30;84.70
52963;DHT22;38827;53.024;6.596;2022-12-18T07:34:49;-5.30;84.70
52963;DHT22;38827;53.024;6.596;2022-12-18T07:37:15;-5.30;84.50
52963;DHT22;38827;53.024;6.596;2022-12-18T07:39:40;-5.30;84.40
52963;DHT22;38827;53.024;6.596;2022-12-18T07:42:07;-5.20;84.40
52963;DHT22;38827;53.024;6.596;2022-12-18T07:44:52;-5.20;84.30
52963;DHT22;38827;53.024;6.596;2022-12-18T07:47:17;-5.20;84.40
52963;DHT22;38827;53.024;6.596;2022-12-18T07:49:43;-5.20;84.30
52963;DHT22;38827;53.024;6.596;2022-12-18T07:52:09;-5.20;84.30
52963;DHT22;38827;53.024;6.596;2022-12-18T07:54:35;-5.10;84.20
52963;DHT22;38827;53.024;6.596;2022-12-18T07:57:00;-5.10;84.20
52963;DHT22;38827;53.024;6.596;2022-12-18T07:59:26;-5.10;84.10
52963;DHT22;38827;53.024;6.596;2022-12-18T08:01:52;-5.00;84.10
52963;DHT22;38827;53.024;6.596;2022-12-18T08:04:17;-5.00;83.90
52963;DHT22;38827;53.024;6.596;2022-12-18T08:06:43;-5.00;83.90
52963;DHT22;38827;53.024;6.596;2022-12-18T08:09:09;-5.00;83.90
52963;DHT22;38827;53.024;6.596;2022-12-18T08:11:35;-5.00;84.00
52963;DHT22;38827;53.024;6.596;2022-12-18T08:14:01;-4.90;83.80
52963;DHT22;38827;53.024;6.596;2022-12-18T08:16:27;-4.90;83.70
52963;DHT22;38827;53.024;6.596;2022-12-18T08:18:53;-4.80;83.80
52963;DHT22;38827;53.024;6.596;2022-12-18T08:21:27;-4.80;83.30
52963;DHT22;38827;53.024;6.596;2022-12-18T08:23:54;-4.70;83.40
52963;DHT22;38827;53.024;6.596;2022-12-18T08:26:20;-4.60;83.30
52963;DHT22;38827;53.024;6.596;2022-12-18T08:28:46;-4.50;83.10
52963;DHT22;38827;53.024;6.596;2022-12-18T08:31:11;-4.40;82.90
52963;DHT22;38827;53.024;6.596;2022-12-18T08:33:38;-4.30;82.70
52963;DHT22;38827;53.024;6.596;2022-12-18T08:36:04;-4.20;82.70
52963;DHT22;38827;53.024;6.596;2022-12-18T08:38:33;-4.20;82.50
52963;DHT22;38827;53.024;6.596;2022-12-18T08:41:18;-4.10;82.40
52963;DHT22;38827;53.024;6.596;2022-12-18T08:43:44;-4.00;82.30
52963;DHT22;38827;53.024;6.596;2022-12-18T08:46:37;-3.90;82.10
52963;DHT22;38827;53.024;6.596;2022-12-18T08:49:04;-3.80;82.00
52963;DHT22;38827;53.024;6.596;2022-12-18T08:51:30;-3.80;81.70
52963;DHT22;38827;53.024;6.596;2022-12-18T08:53:56;-3.70;81.80
52963;DHT22;38827;53.024;6.596;2022-12-18T08:56:22;-3.60;81.80
52963;DHT22;38827;53.024;6.596;2022-12-18T08:58:52;-3.50;81.60
52963;DHT22;38827;53.024;6.596;2022-12-18T09:01:21;-3.40;81.50
52963;DHT22;38827;53.024;6.596;2022-12-18T09:03:50;-3.20;81.30
52963;DHT22;38827;53.024;6.596;2022-12-18T09:06:20;-3.10;81.20
52963;DHT22;38827;53.024;6.596;2022-12-18T09:08:46;-2.90;81.00
52963;DHT22;38827;53.024;6.596;2022-12-18T09:11:15;-2.80;80.40
52963;DHT22;38827;53.024;6.596;2022-12-18T09:13:43;-2.60;80.30
52963;DHT22;38827;53.024;6.596;2022-12-18T09:16:09;-2.60;80.00
52963;DHT22;38827;53.024;6.596;2022-12-18T09:18:35;-2.40;79.80
52963;DHT22;38827;53.024;6.596;2022-12-18T09:23:31;-2.20;78.90
52963;DHT22;38827;53.024;6.596;2022-12-18T09:26:09;-2.20;78.50
52963;DHT22;38827;53.024;6.596;2022-12-18T09:29:28;-2.20;78.00
52963;DHT22;38827;53.024;6.596;2022-12-18T09:32:03;-2.20;77.00
52963;DHT22;38827;53.024;6.596;2022-12-18T09:34:29;-2.20;77.40
52963;DHT22;38827;53.024;6.596;2022-12-18T09:37:14;-2.10;77.30
52963;DHT22;38827;53.024;6.596;2022-12-18T09:39:55;-2.00;77.20
52963;DHT22;38827;53.024;6.596;2022-12-18T09:43:09;-1.90;76.70
52963;DHT22;38827;53.024;6.596;2022-12-18T09:46:12;-1.90;76.00
52963;DHT22;38827;53.024;6.596;2022-12-18T09:49:21;-1.80;76.20
52963;DHT22;38827;53.024;6.596;2022-12-18T09:55:05;-1.70;76.00
52963;DHT22;38827;53.024;6.596;2022-12-18T10:00:38;-1.60;75.50
52963;DHT22;38827;53.024;6.596;2022-12-18T10:03:14;-1.60;75.90
52963;DHT22;38827;53.024;6.596;2022-12-18T10:06:14;-1.50;75.40
52963;DHT22;38827;53.024;6.596;2022-12-18T10:09:01;-1.50;75.20
52963;DHT22;38827;53.024;6.596;2022-12-18T10:11:34;-1.40;74.70
52963;DHT22;38827;53.024;6.596;2022-12-18T10:14:19;-1.40;74.90
52963;DHT22;38827;53.024;6.596;2022-12-18T10:23:03;-1.50;74.30
52963;DHT22;38827;53.024;6.596;2022-12-18T10:25:38;-1.50;74.40
52963;DHT22;38827;53.024;6.596;2022-12-18T10:28:24;-1.50;74.50
52963;DHT22;38827;53.024;6.596;2022-12-18T10:30:51;-1.40;74.50
52963;DHT22;38827;53.024;6.596;2022-12-18T10:33:21;-1.40;74.70
52963;DHT22;38827;53.024;6.596;2022-12-18T10:35:51;-1.30;74.30
52963;DHT22;38827;53.024;6.596;2022-12-18T10:43:43;-1.10;73.80
52963;DHT22;38827;53.024;6.596;2022-12-18T10:46:34;-1.00;73.10
52963;DHT22;38827;53.024;6.596;2022-12-18T10:49:21;-0.90;73.10
52963;DHT22;38827;53.024;6.596;2022-12-18T10:52:27;-0.80;72.80
52963;DHT22;38827;53.024;6.596;2022-12-18T10:54:58;-0.70;72.90
52963;DHT22;38827;53.024;6.596;2022-12-18T10:57:38;-0.70;73.10
52963;DHT22;38827;53.024;6.596;2022-12-18T11:00:26;-0.60;73.20
52963;DHT22;38827;53.024;6.596;2022-12-18T11:02:53;-0.60;73.20
52963;DHT22;38827;53.024;6.596;2022-12-18T11:05:37;-0.70;73.40
52963;DHT22;38827;53.024;6.596;2022-12-18T11:08:20;-0.70;73.30
52963;DHT22;38827;53.024;6.596;2022-12-18T11:10:48;-0.70;73.50
52963;DHT22;38827;53.024;6.596;2022-12-18T11:13:20;-0.70;73.70
52963;DHT22;38827;53.024;6.596;2022-12-18T11:15:46;-0.70;73.90
52963;DHT22;38827;53.024;6.596;2022-12-18T11:18:23;-0.70;73.90
52963;DHT22;38827;53.024;6.596;2022-12-18T11:21:07;-0.70;73.90
52963;DHT22;38827;53.024;6.596;2022-12-18T11:23:34;-0.70;73.80
52963;DHT22;38827;53.024;6.596;2022-12-18T11:26:03;-0.80;73.70
52963;DHT22;38827;53.024;6.596;2022-12-18T11:55:00;-0.80;73.30
52963;DHT22;38827;53.024;6.596;2022-12-18T12:01:06;-0.80;73.50
52963;DHT22;38827;53.024;6.596;2022-12-18T12:40:29;-0.70;71.40
52963;DHT22;38827;53.024;6.596;2022-12-18T12:47:43;-0.60;72.20
52963;DHT22;38827;53.024;6.596;2022-12-18T12:50:42;-0.60;72.00
52963;DHT22;38827;53.024;6.596;2022-12-18T13:00:41;-0.40;71.20
52963;DHT22;38827;53.024;6.596;2022-12-18T13:21:36;-0.10;70.30
52963;DHT22;38827;53.024;6.596;2022-12-18T13:24:24;-0.10;70.10
52963;DHT22;38827;53.024;6.596;2022-12-18T13:30:02;-0.10;70.20
52963;DHT22;38827;53.024;6.596;2022-12-18T13:37:40;0.00;69.70
52963;DHT22;38827;53.024;6.596;2022-12-18T13:49:05;0.00;69.70
52963;DHT22;38827;53.024;6.596;2022-12-18T13:51:35;0.00;69.50
52963;DHT22;38827;53.024;6.596;2022-12-18T13:56:53;0.10;69.00
52963;DHT22;38827;53.024;6.596;2022-12-18T13:59:54;0.10;68.90
52963;DHT22;38827;53.024;6.596;2022-12-18T14:02:24;0.10;68.40
52963;DHT22;38827;53.024;6.596;2022-12-18T14:04:51;0.10;69.10
52963;DHT22;38827;53.024;6.596;2022-12-18T14:07:26;0.10;69.10
52963;DHT22;38827;53.024;6.596;2022-12-18T14:12:25;0.10;68.80
52963;DHT22;38827;53.024;6.596;2022-12-18T14:17:42;0.10;68.80
52963;DHT22;38827;53.024;6.596;2022-12-18T14:26:33;0.10;68.40
52963;DHT22;38827;53.024;6.596;2022-12-18T14:31:44;0.00;68.60
52963;DHT22;38827;53.024;6.596;2022-12-18T14:34:35;0.00;68.80
52963;DHT22;38827;53.024;6.596;2022-12-18T14:37:10;0.00;68.90
52963;DHT22;38827;53.024;6.596;2022-12-18T14:40:12;0.00;68.90
52963;DHT22;38827;53.024;6.596;2022-12-18T14:43:02;0.00;68.80
52963;DHT22;38827;53.024;6.596;2022-12-18T14:45:43;0.00;68.80
52963;DHT22;38827;53.024;6.596;2022-12-18T14:48:16;-0.10;69.20
52963;DHT22;38827;53.024;6.596;2022-12-18T14:51:24;-0.10;69.10
52963;DHT22;38827;53.024;6.596;2022-12-18T14:54:17;-0.10;69.10
52963;DHT22;38827;53.024;6.596;2022-12-18T15:00:22;-0.10;69.60
52963;DHT22;38827;53.024;6.596;2022-12-18T15:17:03;-0.30;70.40
52963;DHT22;38827;53.024;6.596;2022-12-18T15:19:35;-0.30;70.50
52963;DHT22;38827;53.024;6.596;2022-12-18T15:22:01;-0.40;70.70
52963;DHT22;38827;53.024;6.596;2022-12-18T15:24:33;-0.40;70.70
52963;DHT22;38827;53.024;6.596;2022-12-18T15:27:33;-0.40;70.80
52963;DHT22;38827;53.024;6.596;2022-12-18T15:30:22;-0.40;70.70
52963;DHT22;38827;53.024;6.596;2022-12-18T15:36:40;-0.50;71.10
52963;DHT22;38827;53.024;6.596;2022-12-18T15:39:21;-0.50;71.20
52963;DHT22;38827;53.024;6.596;2022-12-18T15:42:15;-0.60;71.40
52963;DHT22;38827;53.024;6.596;2022-12-18T15:45:21;-0.60;71.50
52963;DHT22;38827;53.024;6.596;2022-12-18T15:47:59;-0.60;71.60
52963;DHT22;38827;53.024;6.596;2022-12-18T15:50:50;-0.60;71.70
52963;DHT22;38827;53.024;6.596;2022-12-18T15:53:21;-0.60;71.70
52963;DHT22;38827;53.024;6.596;2022-12-18T15:55:59;-0.70;71.90
52963;DHT22;38827;53.024;6.596;2022-12-18T16:01:18;-0.70;71.80
52963;DHT22;38827;53.024;6.596;2022-12-18T16:04:00;-0.70;72.00
52963;DHT22;38827;53.024;6.596;2022-12-18T16:06:31;-0.70;71.90
52963;DHT22;38827;53.024;6.596;2022-12-18T16:09:32;-0.70;72.00
52963;DHT22;38827;53.024;6.596;2022-12-18T16:12:04;-0.80;71.80
52963;DHT22;38827;53.024;6.596;2022-12-18T16:15:09;-0.80;72.00
52963;DHT22;38827;53.024;6.596;2022-12-18T16:18:12;-0.80;71.80
52963;DHT22;38827;53.024;6.596;2022-12-18T16:20:47;-0.80;72.10
52963;DHT22;38827;53.024;6.596;2022-12-18T16:27:10;-0.80;72.10
52963;DHT22;38827;53.024;6.596;2022-12-18T16:35:35;-0.80;72.20
52963;DHT22;38827;53.024;6.596;2022-12-18T16:38:17;-0.70;72.30
52963;DHT22;38827;53.024;6.596;2022-12-18T16:40:43;-0.70;72.20
52963;DHT22;38827;53.024;6.596;2022-12-18T16:43:57;-0.70;72.20
52963;DHT22;38827;53.024;6.596;2022-12-18T16:46:23;-0.70;72.00
52963;DHT22;38827;53.024;6.596;2022-12-18T16:48:48;-0.70;72.20
52963;DHT22;38827;53.024;6.596;2022-12-18T16:51:55;-0.60;72.00
52963;DHT22;38827;53.024;6.596;2022-12-18T16:54:23;-0.60;71.90
52963;DHT22;38827;53.024;6.596;2022-12-18T17:03:15;-0.50;71.80
52963;DHT22;38827;53.024;6.596;2022-12-18T17:09:03;-0.50;71.80
52963;DHT22;38827;53.024;6.596;2022-12-18T17:19:42;-0.40;71.50
52963;DHT22;38827;53.024;6.596;2022-12-18T17:22:35;-0.40;71.30
52963;DHT22;38827;53.024;6.596;2022-12-18T17:25:28;-0.30;71.10
52963;DHT22;38827;53.024;6.596;2022-12-18T17:31:56;-0.30;71.00
52963;DHT22;38827;53.024;6.596;2022-12-18T17:47:23;-0.30;70.90
52963;DHT22;38827;53.024;6.596;2022-12-18T18:14:13;0.00;70.20
52963;DHT22;38827;53.024;6.596;2022-12-18T18:16:43;0.00;70.20
52963;DHT22;38827;53.024;6.596;2022-12-18T18:22:39;0.00;70.10
52963;DHT22;38827;53.024;6.596;2022-12-18T18:25:08;0.00;69.90
52963;DHT22;38827;53.024;6.596;2022-12-18T18:28:14;0.00;70.00
52963;DHT22;38827;53.024;6.596;2022-12-18T18:30:49;0.00;68.90
52963;DHT22;38827;53.024;6.596;2022-12-18T18:33:17;0.10;69.80
52963;DHT22;38827;53.024;6.596;2022-12-18T18:35:43;0.10;69.90
52963;DHT22;38827;53.024;6.596;2022-12-18T18:38:22;0.10;69.90
52963;DHT22;38827;53.024;6.596;2022-12-18T18:41:04;0.10;69.70
52963;DHT22;38827;53.024;6.596;2022-12-18T18:43:33;0.10;69.80
52963;DHT22;38827;53.024;6.596;2022-12-18T18:46:23;0.10;69.60
52963;DHT22;38827;53.024;6.596;2022-12-18T18:52:19;0.10;69.40
52963;DHT22;38827;53.024;6.596;2022-12-18T18:56:23;0.10;69.30
52963;DHT22;38827;53.024;6.596;2022-12-18T19:02:32;0.20;69.60
52963;DHT22;38827;53.024;6.596;2022-12-18T19:05:31;0.20;69.80
52963;DHT22;38827;53.024;6.596;2022-12-18T19:11:25;0.20;69.40
52963;DHT22;38827;53.024;6.596;2022-12-18T19:14:38;0.30;69.40
52963;DHT22;38827;53.024;6.596;2022-12-18T19:17:21;0.30;69.20
52963;DHT22;38827;53.024;6.596;2022-12-18T19:19:58;0.30;68.80
52963;DHT22;38827;53.024;6.596;2022-12-18T19:22:35;0.40;68.80
52963;DHT22;38827;53.024;6.596;2022-12-18T19:28:05;0.40;68.50
52963;DHT22;38827;53.024;6.596;2022-12-18T19:31:13;0.40;68.20
52963;DHT22;38827;53.024;6.596;2022-12-18T19:33:51;0.50;68.00
52963;DHT22;38827;53.024;6.596;2022-12-18T19:36:33;0.40;67.90
52963;DHT22;38827;53.024;6.596;2022-12-18T19:39:16;0.40;67.90
52963;DHT22;38827;53.024;6.596;2022-12-18T19:41:45;0.40;67.90
52963;DHT22;38827;53.024;6.596;2022-12-18T19:44:15;0.40;68.20
52963;DHT22;38827;53.024;6.596;2022-12-18T19:46:42;0.40;68.40
52963;DHT22;38827;53.024;6.596;2022-12-18T19:49:12;0.50;68.30
52963;DHT22;38827;53.024;6.596;2022-12-18T19:51:45;0.40;68.30
52963;DHT22;38827;53.024;6.596;2022-12-18T19:54:16;0.40;68.50
52963;DHT22;38827;53.024;6.596;2022-12-18T19:56:42;0.50;68.70
52963;DHT22;38827;53.024;6.596;2022-12-18T19:59:09;0.50;68.40
52963;DHT22;38827;53.024;6.596;2022-12-18T20:01:35;0.50;68.40
52963;DHT22;38827;53.024;6.596;2022-12-18T20:04:01;0.50;68.60
52963;DHT22;38827;53.024;6.596;2022-12-18T20:06:44;0.50;68.20
52963;DHT22;38827;53.024;6.596;2022-12-18T20:09:11;0.50;68.70
52963;DHT22;38827;53.024;6.596;2022-12-18T20:11:37;0.50;68.90
52963;DHT22;38827;53.024;6.596;2022-12-18T20:14:04;0.50;69.00
52963;DHT22;38827;53.024;6.596;2022-12-18T20:16:33;0.50;69.00
52963;DHT22;38827;53.024;6.596;2022-12-18T20:18:59;0.50;68.90
52963;DHT22;38827;53.024;6.596;2022-12-18T20:21:25;0.60;69.20
52963;DHT22;38827;53.024;6.596;2022-12-18T20:23:51;0.60;69.00
52963;DHT22;38827;53.024;6.596;2022-12-18T20:26:16;0.60;69.10
52963;DHT22;38827;53.024;6.596;2022-12-18T20:28:42;0.60;69.10
52963;DHT22;38827;53.024;6.596;2022-12-18T20:31:08;0.60;69.30
52963;DHT22;38827;53.024;6.596;2022-12-18T20:33:35;0.60;69.40
52963;DHT22;38827;53.024;6.596;2022-12-18T20:36:06;0.60;69.40
52963;DHT22;38827;53.024;6.596;2022-12-18T20:38:33;0.60;69.50
52963;DHT22;38827;53.024;6.596;2022-12-18T20:40:59;0.60;69.50
52963;DHT22;38827;53.024;6.596;2022-12-18T20:43:29;0.60;69.40
52963;DHT22;38827;53.024;6.596;2022-12-18T20:46:07;0.70;69.60
52963;DHT22;38827;53.024;6.596;2022-12-18T20:48:33;0.70;69.60
52963;DHT22;38827;53.024;6.596;2022-12-18T20:51:03;0.70;69.70
52963;DHT22;38827;53.024;6.596;2022-12-18T20:53:31;0.70;69.80
52963;DHT22;38827;53.024;6.596;2022-12-18T20:55:57;0.70;69.60